sensor_id;sensor_type;location;lat;lon;timestamp;P1;P2;P0
50587;PMS7003;36546;50.516;30.826;2023-04-01T00:00:18;41.80;33.00;21.00
50587;PMS7003;36546;50.516;30.826;2023-04-01T00:01:24;37.00;32.70;21.20
50587;PMS7003;36546;50.516;30.826;2023-04-01T00:02:27;35.70;31.60;20.60
50587;PMS7003;36546;50.516;30.826;2023-04-01T00:03:32;37.20;31.60;21.00
50587;PMS7003;36546;50.516;30.826;2023-04-01T00:04:35;37.60;33.50;21.60
50587;PMS7003;36546;50.516;30.826;2023-04-01T00:05:38;40.80;32.50;21.80
50587;PMS7003;36546;50.516;30.826;2023-04-01T00:06:41;40.64;32.27;21.27
50587;PMS7003;36546;50.516;30.826;2023-04-01T00:07:43;10.20;9.40;0.80
50587;PMS7003;36546;50.516;30.826;2023-04-01T00:08:48;39.10;33.30;20.80
50587;PMS7003;36546;50.516;30.826;2023-04-01T00:09:50;42.90;34.60;21.80
50587;PMS7003;36546;50.516;30.826;2023-04-01T00:10:54;43.40;34.90;20.80
50587;PMS7003;36546;50.516;30.826;2023-04-01T00:12:00;34.40;32.20;21.10
50587;PMS7003;36546;50.516;30.826;2023-04-01T00:13:04;41.50;33.60;21.50
50587;PMS7003;36546;50.516;30.826;2023-04-01T00:14:10;35.90;28.90;17.50
50587;PMS7003;36546;50.516;30.826;2023-04-01T00:15:15;41.90;34.50;22.10
50587;PMS7003;36546;50.516;30.826;2023-04-01T00:16:24;41.30;33.90;21.40
50587;PMS7003;36546;50.516;30.826;2023-04-01T00:17:29;39.10;31.40;20.60
50587;PMS7003;36546;50.516;30.826;2023-04-01T00:18:31;40.70;34.00;21.40
50587;PMS7003;36546;50.516;30.826;2023-04-01T00:19:35;38.70;32.10;20.70
50587;PMS7003;36546;50.516;30.826;2023-04-01T00:20:45;38.40;33.10;21.60
50587;PMS7003;36546;50.516;30.826;2023-04-01T00:21:50;39.90;32.50;21.30
50587;PMS7003;36546;50.516;30.826;2023-04-01T00:22:54;39.30;32.80;21.60
50587;PMS7003;36546;50.516;30.826;2023-04-01T00:23:57;38.60;32.70;21.00
50587;PMS7003;36546;50.516;30.826;2023-04-01T00:25:00;37.10;32.60;20.90
50587;PMS7003;36546;50.516;30.826;2023-04-01T00:27:33;35.40;30.20;19.10
50587;PMS7003;36546;50.516;30.826;2023-04-01T00:28:39;40.30;35.20;22.20
50587;PMS7003;36546;50.516;30.826;2023-04-01T00:29:50;36.60;31.60;20.70
50587;PMS7003;36546;50.516;30.826;2023-04-01T00:30:54;37.80;33.40;21.40
50587;PMS7003;36546;50.516;30.826;2023-04-01T00:31:59;35.00;31.80;21.30
50587;PMS7003;36546;50.516;30.826;2023-04-01T00:33:02;36.00;31.00;19.80
50587;PMS7003;36546;50.516;30.826;2023-04-01T00:34:08;37.80;32.10;20.60
50587;PMS7003;36546;50.516;30.826;2023-04-01T00:35:15;41.00;33.40;21.70
50587;PMS7003;36546;50.516;30.826;2023-04-01T00:36:20;31.60;27.80;15.70
50587;PMS7003;36546;50.516;30.826;2023-04-01T00:37:28;36.90;32.20;21.20
50587;PMS7003;36546;50.516;30.826;2023-04-01T00:38:30;35.90;30.40;20.20
50587;PMS7003;36546;50.516;30.826;2023-04-01T00:39:33;38.30;33.60;21.10
50587;PMS7003;36546;50.516;30.826;2023-04-01T00:40:41;29.40;28.10;16.60
50587;PMS7003;36546;50.516;30.826;2023-04-01T00:41:46;34.90;30.20;19.00
50587;PMS7003;36546;50.516;30.826;2023-04-01T00:42:49;33.90;30.60;19.70
50587;PMS7003;36546;50.516;30.826;2023-04-01T00:43:52;38.50;30.60;20.20
50587;PMS7003;36546;50.516;30.826;2023-04-01T00:44:56;31.40;27.00;15.60
50587;PMS7003;36546;50.516;30.826;2023-04-01T00:45:58;35.40;31.30;20.00
50587;PMS7003;36546;50.516;30.826;2023-04-01T00:47:01;35.64;30.55;19.27
50587;PMS7003;36546;50.516;30.826;2023-04-01T00:48:09;32.70;30.50;20.20
50587;PMS7003;36546;50.516;30.826;2023-04-01T00:49:28;35.40;31.50;21.00
50587;PMS7003;36546;50.516;30.826;2023-04-01T00:50:39;39.60;32.40;20.70
50587;PMS7003;36546;50.516;30.826;2023-04-01T00:51:50;27.10;21.20;10.30
50587;PMS7003;36546;50.516;30.826;2023-04-01T00:52:56;34.60;30.80;17.70
50587;PMS7003;36546;50.516;30.826;2023-04-01T00:54:00;32.40;30.50;19.20
50587;PMS7003;36546;50.516;30.826;2023-04-01T00:55:08;33.60;28.60;17.20
50587;PMS7003;36546;50.516;30.826;2023-04-01T00:56:15;34.70;30.10;20.00
50587;PMS7003;36546;50.516;30.826;2023-04-01T00:57:31;33.40;29.90;19.30
50587;PMS7003;36546;50.516;30.826;2023-04-01T00:58:40;35.50;29.70;19.20
50587;PMS7003;36546;50.516;30.826;2023-04-01T00:59:49;31.40;29.50;19.00
50587;PMS7003;36546;50.516;30.826;2023-04-01T01:00:57;35.00;29.50;18.70
50587;PMS7003;36546;50.516;30.826;2023-04-01T01:02:04;35.00;29.50;20.40
50587;PMS7003;36546;50.516;30.826;2023-04-01T01:03:09;34.10;30.10;18.90
50587;PMS7003;36546;50.516;30.826;2023-04-01T01:05:52;33.10;29.00;18.40
50587;PMS7003;36546;50.516;30.826;2023-04-01T01:08:13;23.20;21.10;12.40
50587;PMS7003;36546;50.516;30.826;2023-04-01T01:09:28;32.40;30.00;19.30
50587;PMS7003;36546;50.516;30.826;2023-04-01T01:10:34;32.10;30.50;20.00
50587;PMS7003;36546;50.516;30.826;2023-04-01T01:11:42;32.70;29.30;19.20
50587;PMS7003;36546;50.516;30.826;2023-04-01T01:17:09;27.90;24.80;17.20
50587;PMS7003;36546;50.516;30.826;2023-04-01T01:18:39;29.70;26.50;16.60
50587;PMS7003;36546;50.516;30.826;2023-04-01T01:20:19;32.10;28.10;19.70
50587;PMS7003;36546;50.516;30.826;2023-04-01T01:22:51;30.00;27.20;17.60
50587;PMS7003;36546;50.516;30.826;2023-04-01T01:28:06;30.80;29.10;18.60
50587;PMS7003;36546;50.516;30.826;2023-04-01T01:29:35;31.20;29.10;19.10
50587;PMS7003;36546;50.516;30.826;2023-04-01T01:30:51;30.50;26.40;17.40
50587;PMS7003;36546;50.516;30.826;2023-04-01T01:35:24;32.10;29.40;18.30
50587;PMS7003;36546;50.516;30.826;2023-04-01T01:36:34;33.00;28.90;18.30
50587;PMS7003;36546;50.516;30.826;2023-04-01T01:37:40;31.20;29.10;17.20
50587;PMS7003;36546;50.516;30.826;2023-04-01T01:38:45;31.70;30.20;19.00
50587;PMS7003;36546;50.516;30.826;2023-04-01T01:39:51;36.40;30.60;20.10
50587;PMS7003;36546;50.516;30.826;2023-04-01T01:40:56;29.40;28.00;18.70
50587;PMS7003;36546;50.516;30.826;2023-04-01T01:42:01;30.30;27.70;19.10
50587;PMS7003;36546;50.516;30.826;2023-04-01T01:43:08;32.80;29.80;18.40
50587;PMS7003;36546;50.516;30.826;2023-04-01T01:44:12;30.70;27.80;18.40
50587;PMS7003;36546;50.516;30.826;2023-04-01T01:45:16;38.90;31.70;20.00
50587;PMS7003;36546;50.516;30.826;2023-04-01T01:46:22;29.80;27.30;15.90
50587;PMS7003;36546;50.516;30.826;2023-04-01T01:47:26;35.50;30.70;18.80
50587;PMS7003;36546;50.516;30.826;2023-04-01T01:48:31;35.90;31.10;18.20
50587;PMS7003;36546;50.516;30.826;2023-04-01T01:49:36;34.40;30.30;19.00
50587;PMS7003;36546;50.516;30.826;2023-04-01T01:50:39;34.10;31.10;19.70
50587;PMS7003;36546;50.516;30.826;2023-04-01T01:51:45;28.00;26.60;15.80
50587;PMS7003;36546;50.516;30.826;2023-04-01T01:52:47;32.20;28.60;18.80
50587;PMS7003;36546;50.516;30.826;2023-04-01T01:53:50;33.50;30.10;19.50
50587;PMS7003;36546;50.516;30.826;2023-04-01T01:54:55;25.10;22.70;11.50
50587;PMS7003;36546;50.516;30.826;2023-04-01T01:56:01;32.60;29.40;18.60
50587;PMS7003;36546;50.516;30.826;2023-04-01T01:57:07;33.30;30.50;19.60
50587;PMS7003;36546;50.516;30.826;2023-04-01T01:59:20;33.40;29.80;18.00
50587;PMS7003;36546;50.516;30.826;2023-04-01T02:00:24;30.50;28.20;18.20
50587;PMS7003;36546;50.516;30.826;2023-04-01T02:01:28;24.60;22.80;14.30
50587;PMS7003;36546;50.516;30.826;2023-04-01T02:02:33;29.70;28.20;18.50
50587;PMS7003;36546;50.516;30.826;2023-04-01T02:03:37;37.60;29.60;19.70
50587;PMS7003;36546;50.516;30.826;2023-04-01T02:04:42;28.40;27.80;17.70
50587;PMS7003;36546;50.516;30.826;2023-04-01T02:05:46;33.50;27.50;18.30
50587;PMS7003;36546;50.516;30.826;2023-04-01T02:08:16;28.40;27.40;18.20
50587;PMS7003;36546;50.516;30.826;2023-04-01T02:09:20;35.60;29.70;18.90
50587;PMS7003;36546;50.516;30.826;2023-04-01T02:10:23;28.60;26.50;17.30
50587;PMS7003;36546;50.516;30.826;2023-04-01T02:11:32;24.00;20.10;13.20
50587;PMS7003;36546;50.516;30.826;2023-04-01T02:12:39;27.80;24.70;17.50
50587;PMS7003;36546;50.516;30.826;2023-04-01T02:14:04;27.40;26.10;18.30
50587;PMS7003;36546;50.516;30.826;2023-04-01T02:15:09;26.10;25.90;17.40
50587;PMS7003;36546;50.516;30.826;2023-04-01T02:16:15;25.90;25.50;17.60
50587;PMS7003;36546;50.516;30.826;2023-04-01T02:17:27;29.80;28.20;17.90
50587;PMS7003;36546;50.516;30.826;2023-04-01T02:18:31;32.30;27.80;18.40
50587;PMS7003;36546;50.516;30.826;2023-04-01T02:19:40;28.50;25.70;15.70
50587;PMS7003;36546;50.516;30.826;2023-04-01T02:20:56;29.90;27.10;18.50
50587;PMS7003;36546;50.516;30.826;2023-04-01T02:22:00;31.80;28.10;17.10
50587;PMS7003;36546;50.516;30.826;2023-04-01T02:23:04;27.50;27.10;18.20
50587;PMS7003;36546;50.516;30.826;2023-04-01T02:24:10;24.90;22.70;13.50
50587;PMS7003;36546;50.516;30.826;2023-04-01T02:25:16;29.60;26.60;17.30
50587;PMS7003;36546;50.516;30.826;2023-04-01T02:26:28;28.80;26.60;17.00
50587;PMS7003;36546;50.516;30.826;2023-04-01T02:27:32;30.50;28.60;19.00
50587;PMS7003;36546;50.516;30.826;2023-04-01T02:28:35;27.20;26.20;18.80
50587;PMS7003;36546;50.516;30.826;2023-04-01T02:29:39;27.70;24.50;17.20
50587;PMS7003;36546;50.516;30.826;2023-04-01T02:30:44;26.10;23.70;17.10
50587;PMS7003;36546;50.516;30.826;2023-04-01T02:31:48;27.50;25.80;17.40
50587;PMS7003;36546;50.516;30.826;2023-04-01T02:32:51;25.80;24.70;15.60
50587;PMS7003;36546;50.516;30.826;2023-04-01T02:33:55;29.10;27.00;17.80
50587;PMS7003;36546;50.516;30.826;2023-04-01T02:34:57;28.00;26.40;17.10
50587;PMS7003;36546;50.516;30.826;2023-04-01T02:35:59;28.30;25.40;17.10
50587;PMS7003;36546;50.516;30.826;2023-04-01T02:37:01;30.80;28.00;17.90
50587;PMS7003;36546;50.516;30.826;2023-04-01T02:38:04;24.60;23.80;16.30
50587;PMS7003;36546;50.516;30.826;2023-04-01T02:39:07;30.10;27.00;18.70
50587;PMS7003;36546;50.516;30.826;2023-04-01T02:40:11;30.70;25.20;17.60
50587;PMS7003;36546;50.516;30.826;2023-04-01T02:41:15;28.80;25.80;16.20
50587;PMS7003;36546;50.516;30.826;2023-04-01T02:42:17;29.40;25.00;18.50
50587;PMS7003;36546;50.516;30.826;2023-04-01T02:43:20;26.50;26.10;17.40
50587;PMS7003;36546;50.516;30.826;2023-04-01T02:44:22;31.20;27.10;18.10
50587;PMS7003;36546;50.516;30.826;2023-04-01T02:45:24;27.30;24.30;17.20
50587;PMS7003;36546;50.516;30.826;2023-04-01T02:46:27;31.90;27.60;19.20
50587;PMS7003;36546;50.516;30.826;2023-04-01T02:47:30;29.70;27.50;18.80
50587;PMS7003;36546;50.516;30.826;2023-04-01T02:48:32;28.20;26.10;15.60
50587;PMS7003;36546;50.516;30.826;2023-04-01T02:49:35;26.20;26.00;16.60
50587;PMS7003;36546;50.516;30.826;2023-04-01T02:50:37;30.30;27.80;17.80
50587;PMS7003;36546;50.516;30.826;2023-04-01T02:51:39;28.30;26.50;17.50
50587;PMS7003;36546;50.516;30.826;2023-04-01T02:52:42;28.40;28.00;17.60
50587;PMS7003;36546;50.516;30.826;2023-04-01T02:53:44;29.00;26.40;17.90
50587;PMS7003;36546;50.516;30.826;2023-04-01T02:54:46;32.60;29.00;19.50
50587;PMS7003;36546;50.516;30.826;2023-04-01T02:55:48;31.70;27.60;18.00
50587;PMS7003;36546;50.516;30.826;2023-04-01T02:56:51;25.70;23.40;16.80
50587;PMS7003;36546;50.516;30.826;2023-04-01T02:57:53;33.30;26.80;17.70
50587;PMS7003;36546;50.516;30.826;2023-04-01T02:58:56;30.40;28.60;18.10
50587;PMS7003;36546;50.516;30.826;2023-04-01T02:59:58;32.50;26.70;18.60
50587;PMS7003;36546;50.516;30.826;2023-04-01T03:01:00;26.80;23.00;16.30
50587;PMS7003;36546;50.516;30.826;2023-04-01T03:02:04;30.40;27.00;18.50
50587;PMS7003;36546;50.516;30.826;2023-04-01T03:03:06;30.30;28.60;18.70
50587;PMS7003;36546;50.516;30.826;2023-04-01T03:04:09;27.10;26.00;17.80
50587;PMS7003;36546;50.516;30.826;2023-04-01T03:05:11;31.30;28.80;18.80
50587;PMS7003;36546;50.516;30.826;2023-04-01T03:06:14;28.80;26.40;17.10
50587;PMS7003;36546;50.516;30.826;2023-04-01T03:07:17;29.20;26.90;18.20
50587;PMS7003;36546;50.516;30.826;2023-04-01T03:08:20;28.50;26.30;18.00
50587;PMS7003;36546;50.516;30.826;2023-04-01T03:09:24;28.70;26.70;18.00
50587;PMS7003;36546;50.516;30.826;2023-04-01T03:10:26;30.50;26.80;18.00
50587;PMS7003;36546;50.516;30.826;2023-04-01T03:11:29;29.40;26.30;17.70
50587;PMS7003;36546;50.516;30.826;2023-04-01T03:12:31;30.30;28.00;18.30
50587;PMS7003;36546;50.516;30.826;2023-04-01T03:13:33;30.90;28.60;17.90
50587;PMS7003;36546;50.516;30.826;2023-04-01T03:14:35;28.11;27.44;18.44
50587;PMS7003;36546;50.516;30.826;2023-04-01T03:15:37;32.00;28.00;18.50
50587;PMS7003;36546;50.516;30.826;2023-04-01T03:16:42;30.20;27.30;18.70
50587;PMS7003;36546;50.516;30.826;2023-04-01T03:17:46;33.70;30.50;19.20
50587;PMS7003;36546;50.516;30.826;2023-04-01T03:18:49;32.50;27.90;18.50
50587;PMS7003;36546;50.516;30.826;2023-04-01T03:19:51;30.70;27.40;18.40
50587;PMS7003;36546;50.516;30.826;2023-04-01T03:20:53;32.30;29.00;19.10
50587;PMS7003;36546;50.516;30.826;2023-04-01T03:21:55;31.10;27.20;19.00
50587;PMS7003;36546;50.516;30.826;2023-04-01T03:22:57;34.10;27.60;18.30
50587;PMS7003;36546;50.516;30.826;2023-04-01T03:24:01;29.80;28.60;19.10
50587;PMS7003;36546;50.516;30.826;2023-04-01T03:25:05;18.30;15.50;13.60
50587;PMS7003;36546;50.516;30.826;2023-04-01T03:26:08;35.50;29.60;18.60
50587;PMS7003;36546;50.516;30.826;2023-04-01T03:27:11;30.20;29.00;16.90
50587;PMS7003;36546;50.516;30.826;2023-04-01T03:28:13;32.30;26.00;16.90
50587;PMS7003;36546;50.516;30.826;2023-04-01T03:29:16;34.70;28.60;18.90
50587;PMS7003;36546;50.516;30.826;2023-04-01T03:30:19;35.91;29.27;19.45
50587;PMS7003;36546;50.516;30.826;2023-04-01T03:31:23;31.60;29.40;19.40
50587;PMS7003;36546;50.516;30.826;2023-04-01T03:32:27;28.10;25.20;17.40
50587;PMS7003;36546;50.516;30.826;2023-04-01T03:33:29;28.20;25.00;17.20
50587;PMS7003;36546;50.516;30.826;2023-04-01T03:34:32;25.40;24.70;17.30
50587;PMS7003;36546;50.516;30.826;2023-04-01T03:35:35;30.10;27.40;18.10
50587;PMS7003;36546;50.516;30.826;2023-04-01T03:36:37;29.50;27.10;18.50
50587;PMS7003;36546;50.516;30.826;2023-04-01T03:37:40;30.40;26.30;18.30
50587;PMS7003;36546;50.516;30.826;2023-04-01T03:38:43;29.10;27.30;16.10
50587;PMS7003;36546;50.516;30.826;2023-04-01T03:40:12;33.90;29.50;20.10
50587;PMS7003;36546;50.516;30.826;2023-04-01T03:41:16;33.20;30.60;19.20
50587;PMS7003;36546;50.516;30.826;2023-04-01T03:42:19;30.20;28.20;18.60
50587;PMS7003;36546;50.516;30.826;2023-04-01T03:43:23;30.30;26.30;17.50
50587;PMS7003;36546;50.516;30.826;2023-04-01T03:44:25;29.80;26.10;18.20
50587;PMS7003;36546;50.516;30.826;2023-04-01T03:45:28;32.10;29.90;18.90
50587;PMS7003;36546;50.516;30.826;2023-04-01T03:46:30;30.70;26.60;18.10
50587;PMS7003;36546;50.516;30.826;2023-04-01T03:47:32;26.90;25.40;17.10
50587;PMS7003;36546;50.516;30.826;2023-04-01T03:48:36;28.50;27.00;17.30
50587;PMS7003;36546;50.516;30.826;2023-04-01T03:49:38;29.20;27.20;17.60
50587;PMS7003;36546;50.516;30.826;2023-04-01T03:50:41;28.30;26.80;17.10
50587;PMS7003;36546;50.516;30.826;2023-04-01T03:51:43;27.82;25.91;17.09
50587;PMS7003;36546;50.516;30.826;2023-04-01T03:53:57;29.60;28.20;18.90
50587;PMS7003;36546;50.516;30.826;2023-04-01T03:54:59;32.40;28.80;18.40
50587;PMS7003;36546;50.516;30.826;2023-04-01T03:56:06;15.20;15.20;8.30
50587;PMS7003;36546;50.516;30.826;2023-04-01T03:57:10;29.20;26.00;16.20
50587;PMS7003;36546;50.516;30.826;2023-04-01T03:58:13;27.60;25.30;16.40
50587;PMS7003;36546;50.516;30.826;2023-04-01T03:59:15;28.20;25.00;17.20
50587;PMS7003;36546;50.516;30.826;2023-04-01T04:00:18;30.60;26.70;18.00
50587;PMS7003;36546;50.516;30.826;2023-04-01T04:01:23;27.10;26.50;17.30
50587;PMS7003;36546;50.516;30.826;2023-04-01T04:02:27;28.10;24.80;17.70
50587;PMS7003;36546;50.516;30.826;2023-04-01T04:03:30;29.30;25.50;17.60
50587;PMS7003;36546;50.516;30.826;2023-04-01T04:04:33;27.73;25.73;18.27
50587;PMS7003;36546;50.516;30.826;2023-04-01T04:05:35;27.20;24.10;15.70
50587;PMS7003;36546;50.516;30.826;2023-04-01T04:06:38;26.73;25.45;15.36
50587;PMS7003;36546;50.516;30.826;2023-04-01T04:07:40;12.00;10.50;1.20
50587;PMS7003;36546;50.516;30.826;2023-04-01T04:08:44;29.30;27.70;17.50
50587;PMS7003;36546;50.516;30.826;2023-04-01T04:09:47;25.36;23.91;16.18
50587;PMS7003;36546;50.516;30.826;2023-04-01T04:10:56;28.70;27.50;17.60
50587;PMS7003;36546;50.516;30.826;2023-04-01T04:12:00;28.90;27.50;16.90
50587;PMS7003;36546;50.516;30.826;2023-04-01T04:13:04;21.80;19.50;12.30
50587;PMS7003;36546;50.516;30.826;2023-04-01T04:14:07;26.64;26.64;16.27
50587;PMS7003;36546;50.516;30.826;2023-04-01T04:15:10;29.90;25.90;18.40
50587;PMS7003;36546;50.516;30.826;2023-04-01T04:16:13;25.50;21.80;16.20
50587;PMS7003;36546;50.516;30.826;2023-04-01T04:17:18;27.00;26.00;18.40
50587;PMS7003;36546;50.516;30.826;2023-04-01T04:18:20;28.10;24.60;16.60
50587;PMS7003;36546;50.516;30.826;2023-04-01T04:19:22;23.20;23.20;16.40
50587;PMS7003;36546;50.516;30.826;2023-04-01T04:20:28;29.70;25.20;16.30
50587;PMS7003;36546;50.516;30.826;2023-04-01T04:21:31;28.30;26.80;18.20
50587;PMS7003;36546;50.516;30.826;2023-04-01T04:22:34;26.40;23.70;15.90
50587;PMS7003;36546;50.516;30.826;2023-04-01T04:23:38;28.20;24.80;16.70
50587;PMS7003;36546;50.516;30.826;2023-04-01T04:24:40;27.80;26.10;17.30
50587;PMS7003;36546;50.516;30.826;2023-04-01T04:27:05;27.20;24.80;16.60
50587;PMS7003;36546;50.516;30.826;2023-04-01T04:28:09;23.50;22.10;16.40
50587;PMS7003;36546;50.516;30.826;2023-04-01T04:29:11;24.00;22.00;15.30
50587;PMS7003;36546;50.516;30.826;2023-04-01T04:30:14;27.60;25.40;16.90
50587;PMS7003;36546;50.516;30.826;2023-04-01T04:31:20;27.10;24.10;16.00
50587;PMS7003;36546;50.516;30.826;2023-04-01T04:32:26;25.10;22.10;14.10
50587;PMS7003;36546;50.516;30.826;2023-04-01T04:33:31;26.20;24.00;15.70
50587;PMS7003;36546;50.516;30.826;2023-04-01T04:34:34;27.50;23.60;15.50
50587;PMS7003;36546;50.516;30.826;2023-04-01T04:35:37;27.60;23.20;15.60
50587;PMS7003;36546;50.516;30.826;2023-04-01T04:36:40;26.50;23.30;15.90
50587;PMS7003;36546;50.516;30.826;2023-04-01T04:37:43;26.70;22.70;16.30
50587;PMS7003;36546;50.516;30.826;2023-04-01T04:38:46;24.30;23.10;16.00
50587;PMS7003;36546;50.516;30.826;2023-04-01T04:39:48;22.90;20.30;13.60
50587;PMS7003;36546;50.516;30.826;2023-04-01T04:40:52;25.80;24.30;15.60
50587;PMS7003;36546;50.516;30.826;2023-04-01T04:41:56;30.50;25.60;16.70
50587;PMS7003;36546;50.516;30.826;2023-04-01T04:42:58;30.70;22.70;16.40
50587;PMS7003;36546;50.516;30.826;2023-04-01T04:44:02;25.00;22.30;15.80
50587;PMS7003;36546;50.516;30.826;2023-04-01T04:45:06;26.40;24.00;16.80
50587;PMS7003;36546;50.516;30.826;2023-04-01T04:46:10;27.30;25.20;16.70
50587;PMS7003;36546;50.516;30.826;2023-04-01T04:47:13;24.30;21.30;15.50
50587;PMS7003;36546;50.516;30.826;2023-04-01T04:48:16;28.60;24.90;16.50
50587;PMS7003;36546;50.516;30.826;2023-04-01T04:49:19;26.70;23.60;16.60
50587;PMS7003;36546;50.516;30.826;2023-04-01T04:50:22;31.40;25.30;15.80
50587;PMS7003;36546;50.516;30.826;2023-04-01T04:51:25;22.60;21.90;15.50
50587;PMS7003;36546;50.516;30.826;2023-04-01T04:52:28;25.27;22.00;14.91
50587;PMS7003;36546;50.516;30.826;2023-04-01T04:53:32;22.80;21.20;13.90
50587;PMS7003;36546;50.516;30.826;2023-04-01T04:54:35;24.30;21.80;14.30
50587;PMS7003;36546;50.516;30.826;2023-04-01T04:55:42;21.40;20.00;13.20
50587;PMS7003;36546;50.516;30.826;2023-04-01T04:56:48;24.80;21.70;13.80
50587;PMS7003;36546;50.516;30.826;2023-04-01T04:57:51;20.91;20.27;14.36
50587;PMS7003;36546;50.516;30.826;2023-04-01T04:58:53;23.90;21.90;13.70
50587;PMS7003;36546;50.516;30.826;2023-04-01T04:59:57;20.00;19.10;13.60
50587;PMS7003;36546;50.516;30.826;2023-04-01T05:01:14;21.80;20.00;14.40
50587;PMS7003;36546;50.516;30.826;2023-04-01T05:02:18;21.50;20.20;14.20
50587;PMS7003;36546;50.516;30.826;2023-04-01T05:03:22;18.90;17.90;12.90
50587;PMS7003;36546;50.516;30.826;2023-04-01T05:04:24;21.50;20.00;14.30
50587;PMS7003;36546;50.516;30.826;2023-04-01T05:05:26;21.60;19.10;13.00
50587;PMS7003;36546;50.516;30.826;2023-04-01T05:06:30;22.80;20.20;14.00
50587;PMS7003;36546;50.516;30.826;2023-04-01T05:07:33;22.90;20.50;14.40
50587;PMS7003;36546;50.516;30.826;2023-04-01T05:08:36;24.20;22.20;14.10
50587;PMS7003;36546;50.516;30.826;2023-04-01T05:09:38;20.10;18.60;12.10
50587;PMS7003;36546;50.516;30.826;2023-04-01T05:10:42;23.90;20.40;13.60
50587;PMS7003;36546;50.516;30.826;2023-04-01T05:11:45;25.45;24.00;15.82
50587;PMS7003;36546;50.516;30.826;2023-04-01T05:12:47;23.20;19.00;13.40
50587;PMS7003;36546;50.516;30.826;2023-04-01T05:13:51;23.20;21.00;14.10
50587;PMS7003;36546;50.516;30.826;2023-04-01T05:14:54;21.70;20.90;15.20
50587;PMS7003;36546;50.516;30.826;2023-04-01T05:15:56;23.10;21.20;15.00
50587;PMS7003;36546;50.516;30.826;2023-04-01T05:16:58;24.80;23.70;16.10
50587;PMS7003;36546;50.516;30.826;2023-04-01T05:18:02;23.18;21.73;14.82
50587;PMS7003;36546;50.516;30.826;2023-04-01T05:19:05;23.30;21.40;13.80
50587;PMS7003;36546;50.516;30.826;2023-04-01T05:20:11;24.00;21.70;16.30
50587;PMS7003;36546;50.516;30.826;2023-04-01T05:21:14;25.10;22.20;15.50
50587;PMS7003;36546;50.516;30.826;2023-04-01T05:22:18;21.50;20.40;13.90
50587;PMS7003;36546;50.516;30.826;2023-04-01T05:23:20;22.80;21.20;15.40
50587;PMS7003;36546;50.516;30.826;2023-04-01T05:24:24;23.90;20.90;14.10
50587;PMS7003;36546;50.516;30.826;2023-04-01T05:25:27;22.80;20.90;14.10
50587;PMS7003;36546;50.516;30.826;2023-04-01T05:26:31;24.30;22.20;14.60
50587;PMS7003;36546;50.516;30.826;2023-04-01T05:27:33;24.20;22.50;15.40
50587;PMS7003;36546;50.516;30.826;2023-04-01T05:28:36;21.30;18.40;13.40
50587;PMS7003;36546;50.516;30.826;2023-04-01T05:29:39;22.00;19.60;12.80
50587;PMS7003;36546;50.516;30.826;2023-04-01T05:30:43;25.90;23.00;15.70
50587;PMS7003;36546;50.516;30.826;2023-04-01T05:31:57;23.90;21.80;14.40
50587;PMS7003;36546;50.516;30.826;2023-04-01T05:33:00;24.64;22.00;15.27
50587;PMS7003;36546;50.516;30.826;2023-04-01T05:34:04;22.10;17.70;12.80
50587;PMS7003;36546;50.516;30.826;2023-04-01T05:35:08;21.30;19.00;12.80
50587;PMS7003;36546;50.516;30.826;2023-04-01T05:36:12;21.90;19.70;12.80
50587;PMS7003;36546;50.516;30.826;2023-04-01T05:37:17;23.70;21.00;14.70
50587;PMS7003;36546;50.516;30.826;2023-04-01T05:38:19;24.20;21.60;15.50
50587;PMS7003;36546;50.516;30.826;2023-04-01T05:39:22;21.40;20.00;14.40
50587;PMS7003;36546;50.516;30.826;2023-04-01T05:40:25;23.30;22.50;14.40
50587;PMS7003;36546;50.516;30.826;2023-04-01T05:41:30;27.30;24.30;14.80
50587;PMS7003;36546;50.516;30.826;2023-04-01T05:42:33;25.00;24.00;15.90
50587;PMS7003;36546;50.516;30.826;2023-04-01T05:43:38;23.10;21.60;15.00
50587;PMS7003;36546;50.516;30.826;2023-04-01T05:44:42;23.80;21.50;15.10
50587;PMS7003;36546;50.516;30.826;2023-04-01T05:45:48;18.40;17.40;10.90
50587;PMS7003;36546;50.516;30.826;2023-04-01T05:46:52;24.10;19.60;14.80
50587;PMS7003;36546;50.516;30.826;2023-04-01T05:47:56;22.00;22.00;14.90
50587;PMS7003;36546;50.516;30.826;2023-04-01T05:48:59;25.27;20.18;13.36
50587;PMS7003;36546;50.516;30.826;2023-04-01T05:50:02;24.90;22.80;14.80
50587;PMS7003;36546;50.516;30.826;2023-04-01T05:51:04;22.80;20.80;13.50
50587;PMS7003;36546;50.516;30.826;2023-04-01T05:52:08;24.10;22.40;16.10
50587;PMS7003;36546;50.516;30.826;2023-04-01T05:53:12;24.80;22.80;15.60
50587;PMS7003;36546;50.516;30.826;2023-04-01T05:54:16;28.60;24.70;17.30
50587;PMS7003;36546;50.516;30.826;2023-04-01T05:55:19;23.82;21.09;14.00
50587;PMS7003;36546;50.516;30.826;2023-04-01T05:56:21;22.70;22.70;14.60
50587;PMS7003;36546;50.516;30.826;2023-04-01T05:57:26;21.60;21.10;14.30
50587;PMS7003;36546;50.516;30.826;2023-04-01T05:58:29;23.00;21.00;14.30
50587;PMS7003;36546;50.516;30.826;2023-04-01T05:59:33;25.90;24.50;16.90
50587;PMS7003;36546;50.516;30.826;2023-04-01T06:00:35;23.00;22.40;15.00
50587;PMS7003;36546;50.516;30.826;2023-04-01T06:01:37;21.70;21.60;15.40
50587;PMS7003;36546;50.516;30.826;2023-04-01T06:02:41;24.80;22.10;15.30
50587;PMS7003;36546;50.516;30.826;2023-04-01T06:03:44;21.70;19.40;14.50
50587;PMS7003;36546;50.516;30.826;2023-04-01T06:04:47;25.36;22.73;15.55
50587;PMS7003;36546;50.516;30.826;2023-04-01T06:05:49;26.20;23.60;15.60
50587;PMS7003;36546;50.516;30.826;2023-04-01T06:06:52;20.70;18.70;12.10
50587;PMS7003;36546;50.516;30.826;2023-04-01T06:07:58;22.30;21.80;14.60
50587;PMS7003;36546;50.516;30.826;2023-04-01T06:09:13;20.00;19.70;13.80
50587;PMS7003;36546;50.516;30.826;2023-04-01T06:10:23;22.70;22.30;15.10
50587;PMS7003;36546;50.516;30.826;2023-04-01T06:18:00;25.30;21.60;14.70
50587;PMS7003;36546;50.516;30.826;2023-04-01T06:19:17;25.30;20.50;13.40
50587;PMS7003;36546;50.516;30.826;2023-04-01T06:21:37;22.10;19.70;13.00
50587;PMS7003;36546;50.516;30.826;2023-04-01T06:31:38;26.00;23.00;14.70
50587;PMS7003;36546;50.516;30.826;2023-04-01T06:35:37;22.40;21.30;13.50
50587;PMS7003;36546;50.516;30.826;2023-04-01T06:37:03;22.00;19.70;12.40
50587;PMS7003;36546;50.516;30.826;2023-04-01T06:43:50;22.90;20.40;14.90
50587;PMS7003;36546;50.516;30.826;2023-04-01T06:46:51;20.70;18.10;12.70
50587;PMS7003;36546;50.516;30.826;2023-04-01T06:54:25;19.40;16.80;11.70